Time;durP1;ratioP1;P1;durP2;ratioP2;P2;SDS_P1;SDS_P2;PMS_P1;PMS_P2;Temp;Humidity;BMP_temperature;BMP_pressure;BME280_temperature;BME280_humidity;BME280_pressure;Samples;Min_cycle;Max_cycle;Signal;HPM_P1;HPM_P2
2023/10/02 00:01:10;;;;;;;19.37;8.10;;;;;;;10.35;93.51;100879.75;4193795;28;20233;-69
2023/10/02 00:03:39;;;;;;;22.50;8.53;;;;;;;10.36;93.60;100881.47;4200803;28;22939;-70
2023/10/02 00:06:09;;;;;;;19.47;8.30;;;;;;;10.36;93.69;100876.06;4198156;28;20237;-69
2023/10/02 00:08:42;;;;;;;20.33;8.60;;;;;;;10.46;93.14;100874.25;4188245;28;20230;-71
2023/10/02 00:11:35;;;;;;;21.00;8.13;;;;;;;10.49;93.18;100872.28;4187445;28;20239;-70
2023/10/02 00:16:43;;;;;;;19.53;9.07;;;;;;;10.22;94.26;100869.13;4202068;28;20738;-69
2023/10/02 00:19:18;;;;;;;19.90;9.03;;;;;;;10.31;94.07;100868.34;4194745;28;21601;-73
2023/10/02 00:21:45;;;;;;;21.77;8.00;;;;;;;10.33;93.77;100870.06;4201170;28;20232;-69
2023/10/02 00:24:13;;;;;;;19.20;8.37;;;;;;;10.28;93.83;100870.44;4189962;28;21104;-71
2023/10/02 00:26:39;;;;;;;20.40;8.40;;;;;;;10.24;94.13;100869.88;4176258;28;23604;-69
2023/10/02 00:29:09;;;;;;;18.43;7.17;;;;;;;10.18;94.47;100872.25;4203798;28;21319;-71
2023/10/02 00:31:38;;;;;;;19.70;8.10;;;;;;;10.17;94.76;100867.81;4189003;28;20526;-68
2023/10/02 00:34:05;;;;;;;14.37;7.77;;;;;;;10.20;94.55;100867.56;4199685;28;20229;-68
2023/10/02 00:36:32;;;;;;;18.93;8.70;;;;;;;10.19;94.48;100857.72;4192328;28;22163;-68
2023/10/02 00:42:10;;;;;;;20.63;8.03;;;;;;;10.14;94.86;100850.88;4196839;28;20324;-67
2023/10/02 00:47:20;;;;;;;18.97;8.67;;;;;;;10.17;95.00;100859.69;4182044;28;20234;-69
2023/10/02 00:50:07;;;;;;;21.00;8.60;;;;;;;10.17;95.14;100855.16;4194481;28;22130;-70
2023/10/02 00:52:36;;;;;;;19.27;8.23;;;;;;;10.13;95.13;100854.56;4199480;28;20238;-70
2023/10/02 00:55:07;;;;;;;18.63;8.70;;;;;;;10.26;94.98;100854.38;4201431;28;20579;-71
2023/10/02 00:57:36;;;;;;;23.07;9.63;;;;;;;10.36;94.69;100853.53;4187043;28;22893;-67
2023/10/02 01:00:07;;;;;;;16.20;8.87;;;;;;;10.36;94.80;100867.94;4200062;28;20241;-69
2023/10/02 01:02:39;;;;;;;20.97;9.20;;;;;;;10.38;95.15;100863.28;4192620;28;20237;-67
2023/10/02 01:05:14;;;;;;;24.83;9.57;;;;;;;10.31;95.04;100868.34;4206988;28;20606;-72
2023/10/02 01:07:41;;;;;;;20.13;8.60;;;;;;;10.31;95.18;100868.34;4199643;28;21672;-70
2023/10/02 01:10:17;;;;;;;21.53;8.20;;;;;;;10.31;95.35;100875.56;4192185;28;22036;-68
2023/10/02 01:12:53;;;;;;;22.23;8.30;;;;;;;10.45;94.43;100869.88;4198221;28;20829;-71
2023/10/02 01:15:22;;;;;;;16.40;8.30;;;;;;;10.49;94.25;100872.28;4188556;28;20351;-69
2023/10/02 01:18:23;;;;;;;17.50;7.83;;;;;;;10.50;93.90;100872.13;4206755;28;20234;-70
2023/10/02 01:20:53;;;;;;;24.70;9.80;;;;;;;10.40;94.00;100874.81;4195068;28;21025;-71
2023/10/02 01:23:25;;;;;;;19.47;8.60;;;;;;;10.39;94.46;100873.09;4186577;28;21279;-68
2023/10/02 01:25:57;;;;;;;22.60;8.90;;;;;;;10.40;94.65;100879.38;4191840;28;21828;-70
2023/10/02 01:28:54;;;;;;;23.13;8.70;;;;;;;10.36;95.07;100869.75;4203177;28;22898;-71
2023/10/02 01:31:41;;;;;;;16.70;9.10;;;;;;;10.36;95.13;100867.94;4210584;28;20248;-71
2023/10/02 01:34:10;;;;;;;19.87;8.60;;;;;;;10.40;95.12;100871.25;4199990;28;20241;-69
2023/10/02 01:36:41;;;;;;;23.27;8.73;;;;;;;10.46;95.00;100862.59;4210286;28;20243;-71
2023/10/02 01:39:14;;;;;;;18.40;8.50;;;;;;;10.67;94.30;100859.81;4188453;28;20649;-69
2023/10/02 01:41:48;;;;;;;19.20;9.60;;;;;;;10.74;93.51;100851.97;4206035;28;20245;-72
2023/10/02 01:44:20;;;;;;;20.57;9.50;;;;;;;10.69;93.44;100851.56;4194527;28;20299;-71
2023/10/02 01:46:50;;;;;;;23.43;9.40;;;;;;;10.55;94.06;100869.03;4198761;28;20235;-71
2023/10/02 01:49:27;;;;;;;21.97;8.73;;;;;;;10.66;93.89;100863.53;4202034;28;20830;-71
2023/10/02 01:52:01;;;;;;;32.60;8.73;;;;;;;10.55;93.96;100866.31;4208778;28;20238;-70
2023/10/02 01:54:29;;;;;;;20.90;9.27;;;;;;;10.61;94.02;100866.63;4182698;28;25841;-71
2023/10/02 01:56:59;;;;;;;26.03;9.30;;;;;;;10.74;93.49;100870.94;4199148;28;25455;-70
2023/10/02 01:59:28;;;;;;;27.00;8.77;;;;;;;10.54;94.02;100884.41;4201273;28;20403;-69
2023/10/02 02:01:57;;;;;;;21.13;9.23;;;;;;;10.59;93.62;100890.28;4192068;28;20501;-71
2023/10/02 02:04:27;;;;;;;21.23;9.30;;;;;;;10.60;93.75;100892.00;4193472;28;20906;-69
2023/10/02 02:06:56;;;;;;;20.47;9.03;;;;;;;10.65;93.58;100882.63;4208005;28;20430;-70
2023/10/02 02:09:31;;;;;;;26.47;9.70;;;;;;;10.65;93.82;100880.75;4192974;28;20295;-70
2023/10/02 02:12:13;;;;;;;23.83;7.97;;;;;;;10.55;94.45;100880.72;4192622;28;20282;-69
2023/10/02 02:14:51;;;;;;;21.83;8.73;;;;;;;10.61;93.95;100884.75;4190405;28;20237;-69
2023/10/02 02:17:23;;;;;;;21.00;8.60;;;;;;;10.58;94.43;100888.56;4199247;28;20789;-70
2023/10/02 02:19:55;;;;;;;18.83;9.10;;;;;;;10.73;93.99;100885.47;4212235;28;20239;-69
2023/10/02 02:22:25;;;;;;;24.10;9.33;;;;;;;10.62;94.40;100890.00;4199411;28;20320;-70
2023/10/02 02:24:53;;;;;;;19.10;9.03;;;;;;;10.72;93.88;100881.06;4208248;28;20617;-70
2023/10/02 02:27:20;;;;;;;26.83;8.97;;;;;;;10.83;93.72;100886.38;4195376;28;21665;-70
2023/10/02 02:29:47;;;;;;;25.30;9.00;;;;;;;10.80;93.43;100885.78;4201872;28;20320;-70
2023/10/02 02:32:19;;;;;;;23.40;9.40;;;;;;;10.80;93.83;100885.78;4194741;28;21158;-70
2023/10/02 02:34:47;;;;;;;22.23;8.97;;;;;;;10.91;94.00;100888.41;4211010;28;20236;-70
2023/10/02 02:37:16;;;;;;;18.33;8.57;;;;;;;11.02;93.05;100898.25;4197990;28;20233;-69
2023/10/02 02:39:43;;;;;;;20.90;9.07;;;;;;;11.02;92.54;100899.09;4201890;28;20406;-68
2023/10/02 02:42:18;;;;;;;23.60;9.27;;;;;;;11.11;92.42;100900.13;4195113;28;20386;-69
2023/10/02 02:44:47;;;;;;;17.47;8.20;;;;;;;11.13;92.33;100894.56;4199154;28;20297;-69
2023/10/02 02:47:16;;;;;;;20.10;8.30;;;;;;;11.17;92.19;100899.56;4202366;28;20770;-71
2023/10/02 02:49:58;;;;;;;20.23;8.63;;;;;;;11.16;91.96;100887.03;4200996;28;20229;-71
2023/10/02 02:52:27;;;;;;;17.63;8.30;;;;;;;11.23;91.56;100896.31;4182741;28;25464;-68
2023/10/02 02:55:12;;;;;;;21.20;8.80;;;;;;;11.29;91.39;100888.59;4196429;28;20247;-68
2023/10/02 02:57:45;;;;;;;14.67;7.73;;;;;;;11.25;92.01;100891.56;4199562;28;20481;-68
2023/10/02 03:00:31;;;;;;;16.97;8.60;;;;;;;11.33;91.21;100895.47;4193054;28;20568;-70
2023/10/02 03:03:00;;;;;;;21.23;8.80;;;;;;;11.27;91.27;100894.16;4195187;28;20221;-70
2023/10/02 03:05:38;;;;;;;15.23;7.67;;;;;;;11.24;91.68;100902.56;4199513;28;22438;-72
2023/10/02 03:08:05;;;;;;;19.93;7.93;;;;;;;11.28;91.66;100900.44;4190151;28;20221;-69
2023/10/02 03:10:40;;;;;;;20.80;7.77;;;;;;;11.20;91.97;100902.00;4198999;28;22827;-70
2023/10/02 03:13:15;;;;;;;22.63;8.80;;;;;;;11.13;92.45;100900.84;4198753;28;20247;-71
2023/10/02 03:15:46;;;;;;;19.23;8.93;;;;;;;11.30;92.06;100904.72;4201182;28;20263;-71
2023/10/02 03:18:23;;;;;;;20.77;8.17;;;;;;;11.33;91.47;100901.72;4192122;28;21784;-69
2023/10/02 03:20:50;;;;;;;22.33;8.20;;;;;;;11.31;91.64;100892.88;4203318;28;20249;-68
2023/10/02 03:23:18;;;;;;;22.77;9.40;;;;;;;11.41;91.42;100891.03;4188318;28;20304;-70
2023/10/02 03:25:47;;;;;;;21.80;8.87;;;;;;;11.48;90.96;100891.31;4191666;28;22873;-69
2023/10/02 03:28:32;;;;;;;18.07;7.93;;;;;;;11.52;90.50;100898.19;4192624;28;20380;-71
2023/10/02 03:31:00;;;;;;;21.40;8.17;;;;;;;11.56;90.49;100890.59;4190342;28;21232;-71
2023/10/02 03:33:31;;;;;;;24.87;8.37;;;;;;;11.58;89.96;100886.75;4191864;28;20553;-71
2023/10/02 03:36:08;;;;;;;22.73;8.73;;;;;;;11.57;89.89;100886.91;4198774;28;20427;-69
2023/10/02 03:38:41;;;;;;;16.53;8.27;;;;;;;11.54;90.25;100882.63;4193432;28;20401;-71
2023/10/02 03:41:10;;;;;;;21.23;7.47;;;;;;;11.66;90.17;100887.91;4190668;28;20237;-69
2023/10/02 03:43:43;;;;;;;19.07;7.67;;;;;;;11.77;89.45;100882.34;4190566;28;20299;-68
2023/10/02 03:46:36;;;;;;;13.73;7.37;;;;;;;11.74;89.28;100883.44;4208283;28;20241;-71
2023/10/02 03:49:06;;;;;;;18.77;7.77;;;;;;;11.95;88.69;100887.00;4197334;28;23653;-70
2023/10/02 03:51:36;;;;;;;20.30;7.77;;;;;;;11.96;88.40;100872.44;4198132;28;20300;-70
2023/10/02 03:54:17;;;;;;;16.53;7.93;;;;;;;11.92;88.40;100871.88;4201346;28;20233;-69
2023/10/02 03:56:49;;;;;;;17.63;7.03;;;;;;;11.91;88.71;100881.00;4205822;28;22613;-70
2023/10/02 03:59:21;;;;;;;18.77;7.07;;;;;;;11.90;88.53;100882.00;4193333;28;20514;-70
2023/10/02 04:01:50;;;;;;;18.67;7.80;;;;;;;11.84;89.06;100880.75;4207392;28;20837;-70
2023/10/02 04:04:24;;;;;;;16.27;7.97;;;;;;;11.84;88.73;100875.31;4194397;28;20236;-69
2023/10/02 04:06:55;;;;;;;16.50;7.80;;;;;;;11.97;88.34;100877.75;4191380;28;20239;-69
2023/10/02 04:09:23;;;;;;;22.30;8.07;;;;;;;12.03;88.26;100877.19;4199871;28;20321;-70
2023/10/02 04:11:52;;;;;;;21.23;7.80;;;;;;;11.99;88.19;100864.91;4196484;28;20258;-71
2023/10/02 04:14:32;;;;;;;19.20;8.17;;;;;;;12.05;87.80;100868.88;4196437;28;20245;-71
2023/10/02 04:17:14;;;;;;;17.23;7.47;;;;;;;11.96;88.09;100873.31;4204296;28;20233;-69
2023/10/02 04:19:51;;;;;;;18.73;7.77;;;;;;;11.89;88.59;100883.88;4196728;28;20228;-69
2023/10/02 04:22:19;;;;;;;16.10;7.53;;;;;;;11.87;88.62;100882.31;4202778;28;20240;-70
2023/10/02 04:25:06;;;;;;;18.23;7.37;;;;;;;11.85;88.90;100887.03;4192717;28;23655;-69
2023/10/02 04:33:03;;;;;;;17.70;7.40;;;;;;;11.72;89.53;100888.19;4201950;28;20301;-71
2023/10/02 04:35:44;;;;;;;28.87;13.30;;;;;;;11.67;89.28;100884.19;4209625;28;20237;-69
2023/10/02 04:38:14;;;;;;;25.33;9.73;;;;;;;11.68;89.84;100894.88;4187629;28;22199;-68
2023/10/02 04:40:51;;;;;;;16.67;8.43;;;;;;;11.71;89.70;100882.88;4199083;28;20584;-73
2023/10/02 04:43:19;;;;;;;16.93;8.00;;;;;;;11.76;89.42;100886.03;4191325;28;20247;-69
2023/10/02 04:45:47;;;;;;;14.83;7.47;;;;;;;11.70;89.39;100886.63;4200243;28;20281;-71
2023/10/02 04:48:16;;;;;;;22.47;8.57;;;;;;;11.83;89.32;100894.44;4191738;28;21604;-70
2023/10/02 04:50:46;;;;;;;19.40;7.93;;;;;;;11.96;88.83;100891.44;4199516;28;21829;-70
2023/10/02 04:55:41;;;;;;;16.30;7.90;;;;;;;12.24;87.37;100883.38;4202305;28;21617;-69
2023/10/02 04:58:17;;;;;;;21.03;8.70;;;;;;;12.22;87.45;100883.53;4193288;28;20288;-70
2023/10/02 05:03:37;;;;;;;17.33;8.20;;;;;;;12.05;88.82;100883.28;4203056;28;21152;-69
2023/10/02 05:06:16;;;;;;;21.17;7.97;;;;;;;12.24;87.56;100889.69;4227328;28;20610;-69
2023/10/02 05:11:26;;;;;;;19.43;8.83;;;;;;;12.22;87.78;100888.97;4193508;28;25630;-73
2023/10/02 05:16:46;;;;;;;19.73;9.07;;;;;;;12.20;88.57;100900.00;4198647;28;21901;-71
2023/10/02 05:19:15;;;;;;;17.90;8.63;;;;;;;12.23;88.94;100890.69;4191868;28;21172;-70
2023/10/02 05:21:50;;;;;;;22.10;8.40;;;;;;;12.26;88.54;100895.84;4229950;28;22176;-71
2023/10/02 05:24:18;;;;;;;25.67;10.13;;;;;;;12.35;88.63;100899.50;4199597;28;20237;-73
2023/10/02 05:26:46;;;;;;;19.00;7.97;;;;;;;12.45;88.59;100908.50;4191599;28;21127;-72
2023/10/02 05:29:36;;;;;;;19.43;7.20;;;;;;;12.57;87.07;100901.03;4190996;28;20248;-70
2023/10/02 05:32:19;;;;;;;21.10;7.20;;;;;;;12.54;87.01;100905.91;4225331;28;21064;-69
2023/10/02 05:34:59;;;;;;;27.20;8.20;;;;;;;12.49;87.06;100918.03;4215200;28;20283;-71
2023/10/02 05:37:31;;;;;;;16.60;7.40;;;;;;;12.44;87.27;100914.06;4206180;28;21762;-70
2023/10/02 05:45:38;;;;;;;21.13;7.40;;;;;;;12.74;85.75;100928.38;4194247;28;20404;-70
2023/10/02 05:50:53;;;;;;;17.10;7.10;;;;;;;12.91;84.52;100930.31;4208041;28;21170;-73
2023/10/02 05:53:34;;;;;;;15.23;7.17;;;;;;;13.02;83.82;100928.41;4204470;28;20308;-70
2023/10/02 05:56:05;;;;;;;19.37;7.33;;;;;;;13.09;83.79;100927.63;4201375;28;20597;-73
2023/10/02 05:58:39;;;;;;;24.97;6.77;;;;;;;13.07;83.72;100932.34;4224282;28;22365;-71
2023/10/02 06:01:18;;;;;;;20.13;7.40;;;;;;;13.11;83.92;100924.75;4228758;28;20250;-72
2023/10/02 06:04:00;;;;;;;16.47;7.07;;;;;;;13.16;83.90;100925.19;4201633;28;21070;-72
2023/10/02 06:06:35;;;;;;;24.30;7.60;;;;;;;13.24;83.64;100921.69;4202145;28;20232;-72
2023/10/02 06:09:12;;;;;;;21.60;7.17;;;;;;;13.28;83.51;100933.97;4204468;28;20228;-72
2023/10/02 06:12:05;;;;;;;18.97;7.17;;;;;;;13.40;82.77;100930.06;4211205;28;20264;-70
2023/10/02 06:14:28;;;;;;;17.67;7.17;;;;;;;13.47;82.10;100931.16;4227744;28;25705;-72
2023/10/02 06:16:56;;;;;;;22.93;7.33;;;;;;;13.54;81.41;100934.13;4220358;28;20229;-69
2023/10/02 06:19:22;;;;;;;18.63;7.17;;;;;;;13.67;81.15;100936.44;4253437;28;20236;-73
2023/10/02 06:22:04;;;;;;;35.43;7.43;;;;;;;13.80;80.50;100936.03;4243335;28;20325;-72
2023/10/02 06:24:32;;;;;;;25.50;7.07;;;;;;;13.77;80.73;100942.66;4284033;28;20303;-70
2023/10/02 06:27:04;;;;;;;22.30;7.87;;;;;;;13.70;81.03;100935.28;4256432;28;21933;-71
2023/10/02 06:29:35;;;;;;;17.20;6.30;;;;;;;13.90;80.18;100936.81;4228007;28;20225;-72
2023/10/02 06:32:11;;;;;;;27.30;7.67;;;;;;;13.74;80.68;100936.66;4195098;28;22748;-71
2023/10/02 06:34:39;;;;;;;22.43;6.90;;;;;;;13.79;80.62;100929.75;4202880;28;20756;-72
2023/10/02 06:37:19;;;;;;;16.00;6.57;;;;;;;14.02;80.03;100934.72;4211674;28;20375;-75
2023/10/02 06:40:02;;;;;;;25.13;6.90;;;;;;;14.17;78.91;100929.53;4212413;28;20267;-71
2023/10/02 06:42:31;;;;;;;17.57;6.57;;;;;;;14.14;78.92;100937.16;4191165;28;20241;-70
2023/10/02 06:45:01;;;;;;;32.53;7.50;;;;;;;14.31;78.49;100935.44;4191481;28;21796;-71
2023/10/02 06:47:30;;;;;;;24.53;6.83;;;;;;;14.46;77.56;100941.13;4213645;28;20340;-68
2023/10/02 06:50:21;;;;;;;22.23;8.37;;;;;;;14.57;76.88;100936.28;4204762;28;20589;-69
2023/10/02 06:52:51;;;;;;;27.77;6.73;;;;;;;14.65;76.81;100937.34;4214119;28;20446;-69
2023/10/02 06:55:18;;;;;;;26.33;6.37;;;;;;;14.80;75.96;100935.75;4198064;28;21064;-70
2023/10/02 06:57:52;;;;;;;36.57;7.70;;;;;;;15.04;74.80;100936.88;4209390;28;20237;-69
2023/10/02 07:00:20;;;;;;;28.47;7.17;;;;;;;14.97;75.04;100938.53;4199742;28;20528;-72
2023/10/02 07:02:56;;;;;;;22.90;6.90;;;;;;;14.99;74.92;100929.19;4203105;28;20248;-69
2023/10/02 07:05:32;;;;;;;19.33;5.70;;;;;;;15.04;75.12;100926.81;4197439;28;20232;-70
2023/10/02 07:08:17;;;;;;;20.23;5.97;;;;;;;15.15;73.98;100928.38;4203870;28;20236;-70
2023/10/02 07:10:45;;;;;;;19.03;6.07;;;;;;;15.25;73.63;100936.44;4202535;28;20233;-68
2023/10/02 07:13:19;;;;;;;23.00;6.60;;;;;;;15.42;72.70;100933.72;4190639;28;23398;-70
2023/10/02 07:15:56;;;;;;;29.53;7.73;;;;;;;15.49;72.79;100930.19;4201181;28;20422;-71
2023/10/02 07:18:35;;;;;;;26.63;6.33;;;;;;;15.51;72.21;100933.59;4200114;28;20458;-67
2023/10/02 07:21:07;;;;;;;19.70;6.60;;;;;;;15.70;71.85;100928.84;4198258;28;20530;-68
2023/10/02 07:23:38;;;;;;;24.10;6.87;;;;;;;15.72;71.93;100931.38;4203897;28;20237;-70
2023/10/02 07:26:16;;;;;;;23.93;5.93;;;;;;;15.82;71.16;100934.81;4203872;28;21085;-67
2023/10/02 07:28:52;;;;;;;23.90;6.03;;;;;;;15.88;71.33;100931.44;4196023;28;21788;-69
2023/10/02 07:31:23;;;;;;;18.60;6.63;;;;;;;15.99;70.86;100927.50;4191268;28;20238;-69
2023/10/02 07:33:55;;;;;;;21.43;6.30;;;;;;;16.07;70.13;100919.31;4213211;28;20240;-69
2023/10/02 07:36:26;;;;;;;24.97;5.57;;;;;;;16.09;70.24;100913.66;4202232;28;23837;-69
2023/10/02 07:38:54;;;;;;;26.27;6.00;;;;;;;16.24;69.65;100911.94;4197775;28;25467;-73
2023/10/02 07:41:24;;;;;;;22.97;5.70;;;;;;;16.31;69.16;100915.69;4190885;28;20229;-71
2023/10/02 07:44:07;;;;;;;26.47;6.40;;;;;;;16.52;68.98;100917.03;4202325;28;20690;-70
2023/10/02 07:46:36;;;;;;;24.33;6.17;;;;;;;16.58;68.90;100918.19;4196994;28;20241;-71
2023/10/02 07:49:04;;;;;;;33.63;6.30;;;;;;;16.60;67.97;100924.34;4193572;28;21173;-68
2023/10/02 07:51:38;;;;;;;21.33;6.23;;;;;;;16.76;68.10;100927.03;4264609;28;20237;-71
2023/10/02 07:54:13;;;;;;;27.40;6.13;;;;;;;17.05;66.37;100930.19;4244436;28;20980;-70
2023/10/02 07:56:41;;;;;;;18.73;5.67;;;;;;;17.39;65.90;100929.84;4193103;28;21783;-68
2023/10/02 07:59:09;;;;;;;19.47;5.27;;;;;;;17.85;63.95;100923.53;4199526;28;20243;-72
2023/10/02 08:01:39;;;;;;;16.30;5.53;;;;;;;17.97;63.46;100923.97;4198726;28;20737;-68
2023/10/02 08:04:06;;;;;;;16.00;5.50;;;;;;;17.98;63.39;100920.22;4202932;28;21143;-69
2023/10/02 08:06:33;;;;;;;17.80;5.27;;;;;;;18.14;62.45;100915.63;4253741;28;21742;-69
2023/10/02 08:11:51;;;;;;;17.43;5.03;;;;;;;18.07;62.85;100926.44;4207443;28;20288;-68
2023/10/02 08:14:38;;;;;;;28.07;5.07;;;;;;;18.41;62.05;100924.25;4203537;28;20240;-68
2023/10/02 08:17:18;;;;;;;20.97;5.07;;;;;;;18.43;61.20;100924.91;4201835;28;20343;-73
2023/10/02 08:19:54;;;;;;;20.43;5.57;;;;;;;18.73;61.01;100930.41;4198226;28;20289;-74
2023/10/02 08:22:37;;;;;;;14.60;4.40;;;;;;;18.89;59.59;100929.38;4198957;28;20241;-70
2023/10/02 08:25:13;;;;;;;17.43;5.13;;;;;;;18.73;60.71;100930.41;4190743;28;20249;-72
2023/10/02 08:27:55;;;;;;;12.77;4.63;;;;;;;18.81;59.82;100922.94;4201379;28;21030;-71
2023/10/02 08:30:31;;;;;;;15.23;4.83;;;;;;;18.78;59.81;100931.56;4203729;28;23406;-71
2023/10/02 08:33:09;;;;;;;14.17;4.67;;;;;;;18.62;60.31;100932.56;4204002;28;21594;-71
2023/10/02 08:36:09;;;;;;;12.40;4.67;;;;;;;18.81;59.97;100933.91;4206913;28;22346;-70
2023/10/02 08:38:40;;;;;;;21.67;4.80;;;;;;;18.26;61.43;100933.31;4206263;28;20233;-72
2023/10/02 08:41:08;;;;;;;12.43;4.23;;;;;;;18.24;62.00;100940.00;4218171;28;20419;-71
2023/10/02 08:43:42;;;;;;;18.73;5.50;;;;;;;18.25;61.46;100928.00;4197950;28;20355;-72
2023/10/02 08:46:19;;;;;;;15.57;4.37;;;;;;;18.42;61.27;100937.78;4201659;28;20246;-72
2023/10/02 08:48:54;;;;;;;15.43;4.30;;;;;;;18.60;60.04;100937.44;4215878;28;21652;-70
2023/10/02 08:51:32;;;;;;;13.47;4.37;;;;;;;17.98;62.69;100942.13;4179777;28;20579;-73
2023/10/02 08:54:00;;;;;;;13.67;4.10;;;;;;;18.26;61.58;100933.31;4206613;28;20541;-71
2023/10/02 08:56:48;;;;;;;17.17;4.60;;;;;;;18.08;62.60;100936.38;4212654;28;20230;-71
2023/10/02 08:59:16;;;;;;;9.90;4.00;;;;;;;17.82;63.36;100939.47;4222346;28;20237;-72
2023/10/02 09:01:48;;;;;;;17.80;4.23;;;;;;;17.74;63.59;100943.13;4213935;28;20229;-72
2023/10/02 09:04:28;;;;;;;20.40;4.80;;;;;;;17.76;63.82;100934.72;4206113;28;20241;-71
2023/10/02 09:06:58;;;;;;;14.07;4.77;;;;;;;18.10;63.40;100942.53;4193792;28;20616;-73
2023/10/02 09:09:27;;;;;;;15.03;4.03;;;;;;;18.02;63.89;100939.88;4204150;28;20239;-75
2023/10/02 09:11:58;;;;;;;13.33;3.87;;;;;;;18.39;62.62;100931.84;4206118;28;20340;-72
2023/10/02 09:17:07;;;;;;;9.27;4.07;;;;;;;18.60;61.00;100928.31;4223664;28;21037;-75
2023/10/02 09:19:37;;;;;;;13.57;4.23;;;;;;;19.14;59.83;100929.94;4191690;28;20233;-74
2023/10/02 09:22:07;;;;;;;10.97;4.00;;;;;;;19.58;57.38;100928.97;4220373;28;20249;-74
2023/10/02 09:24:40;;;;;;;13.13;4.10;;;;;;;19.71;57.24;100925.53;4211475;28;25374;-66
2023/10/02 09:27:23;;;;;;;15.77;3.63;;;;;;;20.01;56.22;100919.91;4174501;28;20234;-64
2023/10/02 09:30:15;;;;;;;10.50;3.83;;;;;;;20.55;53.75;100920.28;4220472;28;20236;-69
2023/10/02 09:32:47;;;;;;;19.40;3.77;;;;;;;20.89;51.89;100913.13;4202999;28;20320;-70
2023/10/02 09:35:40;;;;;;;12.60;3.97;;;;;;;21.12;51.39;100918.28;4221579;28;20304;-67
2023/10/02 09:38:31;;;;;;;18.97;3.50;;;;;;;21.55;49.58;100911.66;4201811;28;20239;-64
2023/10/02 09:43:36;;;;;;;13.77;3.50;;;;;;;21.25;50.45;100902.91;4200893;28;22592;-66
2023/10/02 09:46:15;;;;;;;8.70;3.20;;;;;;;20.78;52.84;100908.19;4187331;28;20258;-71
2023/10/02 09:48:56;;;;;;;10.97;3.30;;;;;;;21.21;49.80;100908.81;4198390;28;20334;-69
2023/10/02 09:51:37;;;;;;;10.53;3.00;;;;;;;21.23;49.35;100910.50;4196726;28;20229;-67
2023/10/02 09:54:13;;;;;;;14.93;3.63;;;;;;;20.23;52.94;100906.13;4216044;28;20234;-68
2023/10/02 09:57:11;;;;;;;10.37;2.80;;;;;;;20.59;52.20;100896.84;4189148;28;20268;-66
2023/10/02 09:59:46;;;;;;;11.97;2.87;;;;;;;20.39;51.83;100900.28;4224957;28;20240;-67
2023/10/02 10:05:39;;;;;;;5.83;2.40;;;;;;;19.88;53.96;100901.41;4191132;28;22245;-67
2023/10/02 10:07:58;;;;;;;10.37;2.93;;;;;;;19.70;53.00;100901.84;4199271;28;20275;-67
2023/10/02 10:10:47;;;;;;;11.43;2.93;;;;;;;19.75;53.49;100910.34;4204610;28;21142;-66
2023/10/02 10:13:50;;;;;;;10.80;2.60;;;;;;;19.86;53.16;100900.75;4215083;28;20692;-68
2023/10/02 10:16:20;;;;;;;9.97;2.80;;;;;;;20.27;52.20;100899.16;4194735;28;22996;-67
2023/10/02 10:27:39;;;;;;;10.87;2.67;;;;;;;20.15;51.72;100882.38;4193580;28;21330;-66
2023/10/02 10:30:19;;;;;;;10.60;2.63;;;;;;;20.59;49.38;100869.34;4238227;28;20630;-65
2023/10/02 10:32:46;;;;;;;10.73;2.77;;;;;;;20.28;50.80;100878.88;4220957;28;20271;-69
2023/10/02 10:35:30;;;;;;;9.87;2.60;;;;;;;20.49;49.50;100866.97;4209441;28;20616;-68
2023/10/02 10:37:57;;;;;;;6.20;2.27;;;;;;;20.82;48.68;100877.31;4221725;28;25806;-66
2023/10/02 10:40:59;;;;;;;11.73;2.57;;;;;;;20.56;49.50;100858.72;4222829;28;22345;-68
2023/10/02 10:46:16;;;;;;;8.83;2.60;;;;;;;20.94;48.06;100865.72;4216645;28;20283;-68
2023/10/02 10:49:07;;;;;;;8.40;2.13;;;;;;;20.76;48.89;100869.03;4214878;28;20599;-65
2023/10/02 10:51:36;;;;;;;11.10;2.60;;;;;;;20.53;49.83;100872.91;4216713;28;20237;-67
2023/10/02 10:54:13;;;;;;;7.23;2.20;;;;;;;20.81;47.35;100858.25;4211717;28;20610;-67
2023/10/02 10:57:04;;;;;;;10.20;3.43;;;;;;;20.69;49.00;100857.97;4245079;28;21486;-69
2023/10/02 10:59:42;;;;;;;9.20;2.40;;;;;;;20.53;48.04;100859.16;4225900;28;20249;-69
2023/10/02 11:02:12;;;;;;;10.40;2.67;;;;;;;20.58;48.72;100860.22;4208262;28;20252;-71
2023/10/02 11:04:47;;;;;;;12.37;2.43;;;;;;;20.52;47.88;100857.47;4197913;28;20354;-70
2023/10/02 11:07:25;;;;;;;9.27;2.37;;;;;;;20.57;48.87;100858.56;4221435;28;21249;-69
2023/10/02 11:10:20;;;;;;;12.63;2.37;;;;;;;20.56;49.02;100847.72;4204846;28;21566;-75
2023/10/02 11:12:56;;;;;;;9.60;2.70;;;;;;;20.62;50.24;100857.06;4223942;28;21557;-70
2023/10/02 11:18:20;;;;;;;8.13;2.70;;;;;;;20.30;50.02;100848.44;4228553;28;22932;-71
2023/10/02 11:20:50;;;;;;;12.43;2.80;;;;;;;20.21;50.03;100836.75;4188550;28;20431;-68
2023/10/02 11:23:29;;;;;;;13.00;3.20;;;;;;;20.27;49.78;100835.94;4189207;28;20559;-70
2023/10/02 11:25:58;;;;;;;13.37;2.53;;;;;;;20.63;48.79;100836.78;4198715;28;20250;-72
2023/10/02 11:28:31;;;;;;;9.83;2.20;;;;;;;21.10;47.36;100831.47;4213880;28;20557;-69
2023/10/02 11:31:30;;;;;;;8.90;2.43;;;;;;;21.38;45.58;100831.31;4222813;28;21683;-70
2023/10/02 11:34:00;;;;;;;10.17;2.20;;;;;;;21.62;45.56;100837.31;4203769;28;21261;-69
2023/10/02 11:36:53;;;;;;;8.40;2.53;;;;;;;21.24;47.49;100833.19;4203203;28;21080;-69
2023/10/02 11:39:20;;;;;;;11.23;2.43;;;;;;;21.65;47.34;100836.88;4205300;28;20239;-71
2023/10/02 11:41:47;;;;;;;13.63;2.57;;;;;;;21.87;46.09;100829.25;4201340;28;21352;-68
2023/10/02 11:44:14;;;;;;;12.77;2.33;;;;;;;21.47;47.63;100826.44;4226461;28;20632;-69
2023/10/02 11:46:43;;;;;;;9.43;2.67;;;;;;;21.26;46.92;100825.59;4223655;28;20546;-70
2023/10/02 11:49:13;;;;;;;11.73;2.50;;;;;;;21.34;47.41;100830.03;4198854;28;20582;-70
2023/10/02 11:51:41;;;;;;;9.43;2.90;;;;;;;21.73;46.72;100833.09;4202121;28;22305;-69
2023/10/02 11:54:13;;;;;;;6.60;2.53;;;;;;;21.83;46.23;100828.84;4203296;28;20252;-72
2023/10/02 11:56:40;;;;;;;12.07;2.80;;;;;;;21.48;47.33;100825.41;4190034;28;20241;-68
2023/10/02 11:59:07;;;;;;;8.70;2.67;;;;;;;21.83;45.41;100820.56;4213608;28;25289;-70
2023/10/02 12:01:35;;;;;;;11.90;3.03;;;;;;;21.93;45.61;100817.38;4208321;28;20389;-67
2023/10/02 12:04:04;;;;;;;13.50;3.10;;;;;;;22.06;46.91;100821.16;4194168;28;20240;-68
2023/10/02 12:06:31;;;;;;;12.53;2.80;;;;;;;21.81;45.54;100819.94;4206140;28;20242;-71
2023/10/02 12:08:58;;;;;;;8.63;2.10;;;;;;;22.24;44.59;100821.34;4205135;28;21496;-71
2023/10/02 12:11:26;;;;;;;8.87;2.27;;;;;;;21.86;46.14;100812.94;4203373;28;21876;-69
2023/10/02 12:13:52;;;;;;;11.07;2.90;;;;;;;21.33;47.32;100811.84;4193817;28;20626;-67
2023/10/02 12:16:21;;;;;;;6.80;2.23;;;;;;;21.33;48.06;100814.59;4210598;28;20684;-70
2023/10/02 12:18:50;;;;;;;8.03;2.50;;;;;;;21.32;48.39;100810.97;4220309;28;20236;-72
2023/10/02 12:21:19;;;;;;;9.73;2.57;;;;;;;21.91;45.39;100811.22;4211468;28;20382;-70
2023/10/02 12:23:46;;;;;;;14.93;3.33;;;;;;;21.83;45.14;100803.16;4187824;28;20255;-68
2023/10/02 12:26:17;;;;;;;6.87;2.23;;;;;;;21.99;44.80;100793.63;4217776;28;20241;-71
2023/10/02 12:28:44;;;;;;;7.77;2.40;;;;;;;22.13;44.53;100795.28;4232857;28;21790;-73
2023/10/02 12:31:15;;;;;;;9.00;2.57;;;;;;;22.00;45.53;100781.53;4200801;28;20617;-74
2023/10/02 12:33:43;;;;;;;9.80;3.10;;;;;;;21.81;46.86;100794.28;4219219;28;20237;-71
2023/10/02 12:36:21;;;;;;;14.60;3.10;;;;;;;21.56;47.85;100794.06;4207987;28;21985;-69
2023/10/02 12:38:50;;;;;;;12.87;2.83;;;;;;;21.67;47.75;100785.19;4197723;28;20276;-72
2023/10/02 12:41:19;;;;;;;7.17;3.00;;;;;;;21.67;47.16;100782.41;4204449;28;20582;-70
2023/10/02 12:43:47;;;;;;;9.30;2.93;;;;;;;21.44;48.17;100783.66;4210426;28;20431;-73
2023/10/02 12:46:15;;;;;;;12.50;3.23;;;;;;;21.45;48.62;100792.78;4196016;28;21115;-69